sensor_id;sensor_type;location;lat;lon;timestamp;pressure;altitude;pressure_sealevel;temperature
20730;BMP280;10526;50.850;12.928;2023-07-16T00:00:55;97712.66;;;22.74
20730;BMP280;10526;50.850;12.928;2023-07-16T00:05:17;97699.75;;;22.57
20730;BMP280;10526;50.850;12.928;2023-07-16T00:09:39;97725.59;;;22.42
20730;BMP280;10526;50.850;12.928;2023-07-16T00:14:01;97732.19;;;22.29
20730;BMP280;10526;50.850;12.928;2023-07-16T00:18:23;97727.69;;;22.21
20730;BMP280;10526;50.850;12.928;2023-07-16T00:22:45;97711.56;;;22.06
20730;BMP280;10526;50.850;12.928;2023-07-16T00:27:07;97717.75;;;21.81
20730;BMP280;10526;50.850;12.928;2023-07-16T00:31:30;97705.53;;;21.59
20730;BMP280;10526;50.850;12.928;2023-07-16T00:35:52;97684.34;;;21.32
20730;BMP280;10526;50.850;12.928;2023-07-16T00:40:14;97696.56;;;21.22
20730;BMP280;10526;50.850;12.928;2023-07-16T00:44:36;97678.72;;;21.10
20730;BMP280;10526;50.850;12.928;2023-07-16T00:48:58;97659.03;;;20.89
20730;BMP280;10526;50.850;12.928;2023-07-16T00:53:20;97682.00;;;20.73
20730;BMP280;10526;50.850;12.928;2023-07-16T00:57:43;97691.63;;;20.39
20730;BMP280;10526;50.850;12.928;2023-07-16T01:02:06;97700.53;;;20.25
20730;BMP280;10526;50.850;12.928;2023-07-16T01:06:48;97714.31;;;20.27
20730;BMP280;10526;50.850;12.928;2023-07-16T01:11:12;97713.22;;;20.19
20730;BMP280;10526;50.850;12.928;2023-07-16T01:15:35;97726.09;;;20.09
20730;BMP280;10526;50.850;12.928;2023-07-16T01:19:57;97737.09;;;20.05
20730;BMP280;10526;50.850;12.928;2023-07-16T01:25:01;97732.09;;;19.98
20730;BMP280;10526;50.850;12.928;2023-07-16T01:29:52;97735.91;;;19.92
20730;BMP280;10526;50.850;12.928;2023-07-16T01:34:17;97734.44;;;19.91
20730;BMP280;10526;50.850;12.928;2023-07-16T01:38:40;97710.34;;;19.93
20730;BMP280;10526;50.850;12.928;2023-07-16T01:43:02;97716.25;;;19.91
20730;BMP280;10526;50.850;12.928;2023-07-16T01:52:13;97676.63;;;19.88
20730;BMP280;10526;50.850;12.928;2023-07-16T01:56:35;97685.22;;;19.87
20730;BMP280;10526;50.850;12.928;2023-07-16T02:00:57;97681.47;;;19.84
20730;BMP280;10526;50.850;12.928;2023-07-16T02:05:19;97718.47;;;19.78
20730;BMP280;10526;50.850;12.928;2023-07-16T02:09:41;97724.72;;;19.69
20730;BMP280;10526;50.850;12.928;2023-07-16T02:14:03;97729.72;;;19.62
20730;BMP280;10526;50.850;12.928;2023-07-16T02:18:25;97744.16;;;19.59
20730;BMP280;10526;50.850;12.928;2023-07-16T02:22:47;97759.56;;;19.53
20730;BMP280;10526;50.850;12.928;2023-07-16T02:27:09;97763.72;;;19.54
20730;BMP280;10526;50.850;12.928;2023-07-16T02:31:32;97756.94;;;19.58
20730;BMP280;10526;50.850;12.928;2023-07-16T02:35:54;97761.69;;;19.63
20730;BMP280;10526;50.850;12.928;2023-07-16T02:40:16;97774.25;;;19.66
20730;BMP280;10526;50.850;12.928;2023-07-16T02:44:37;97776.81;;;19.70
20730;BMP280;10526;50.850;12.928;2023-07-16T02:49:03;97775.88;;;19.73
20730;BMP280;10526;50.850;12.928;2023-07-16T02:53:26;97770.47;;;19.73
20730;BMP280;10526;50.850;12.928;2023-07-16T02:57:48;97775.13;;;19.72
20730;BMP280;10526;50.850;12.928;2023-07-16T03:02:10;97784.25;;;19.75
20730;BMP280;10526;50.850;12.928;2023-07-16T03:06:32;97798.06;;;19.77
20730;BMP280;10526;50.850;12.928;2023-07-16T03:10:54;97783.78;;;19.76
20730;BMP280;10526;50.850;12.928;2023-07-16T03:15:16;97785.00;;;19.75
20730;BMP280;10526;50.850;12.928;2023-07-16T03:19:38;97785.28;;;19.77
20730;BMP280;10526;50.850;12.928;2023-07-16T03:24:00;97776.44;;;19.77
20730;BMP280;10526;50.850;12.928;2023-07-16T03:28:22;97762.91;;;19.77
20730;BMP280;10526;50.850;12.928;2023-07-16T03:32:44;97752.09;;;19.77
20730;BMP280;10526;50.850;12.928;2023-07-16T03:37:15;97719.88;;;19.73
20730;BMP280;10526;50.850;12.928;2023-07-16T03:41:37;97697.06;;;19.60
20730;BMP280;10526;50.850;12.928;2023-07-16T03:45:59;97689.56;;;19.55
20730;BMP280;10526;50.850;12.928;2023-07-16T03:50:23;97690.97;;;19.50
20730;BMP280;10526;50.850;12.928;2023-07-16T03:54:45;97661.06;;;19.54
20730;BMP280;10526;50.850;12.928;2023-07-16T03:59:07;97674.47;;;19.63
20730;BMP280;10526;50.850;12.928;2023-07-16T04:03:29;97653.97;;;19.71
20730;BMP280;10526;50.850;12.928;2023-07-16T04:07:51;97653.63;;;19.78
20730;BMP280;10526;50.850;12.928;2023-07-16T04:12:13;97652.44;;;19.79
20730;BMP280;10526;50.850;12.928;2023-07-16T04:16:35;97648.97;;;19.79
20730;BMP280;10526;50.850;12.928;2023-07-16T04:20:57;97630.31;;;19.81
20730;BMP280;10526;50.850;12.928;2023-07-16T04:25:19;97613.00;;;19.87
20730;BMP280;10526;50.850;12.928;2023-07-16T04:29:42;97614.28;;;19.92
20730;BMP280;10526;50.850;12.928;2023-07-16T04:34:03;97667.41;;;19.95
20730;BMP280;10526;50.850;12.928;2023-07-16T04:38:26;97690.88;;;20.03
20730;BMP280;10526;50.850;12.928;2023-07-16T04:42:48;97708.38;;;20.08
20730;BMP280;10526;50.850;12.928;2023-07-16T04:47:10;97708.19;;;20.12
20730;BMP280;10526;50.850;12.928;2023-07-16T04:51:32;97721.72;;;20.12
20730;BMP280;10526;50.850;12.928;2023-07-16T04:55:54;97744.19;;;20.18
20730;BMP280;10526;50.850;12.928;2023-07-16T05:00:16;97773.63;;;20.30
20730;BMP280;10526;50.850;12.928;2023-07-16T05:04:38;97787.91;;;20.31
20730;BMP280;10526;50.850;12.928;2023-07-16T05:09:00;97781.81;;;20.36
20730;BMP280;10526;50.850;12.928;2023-07-16T05:13:22;97800.75;;;20.51
20730;BMP280;10526;50.850;12.928;2023-07-16T05:17:44;97809.81;;;20.83
20730;BMP280;10526;50.850;12.928;2023-07-16T05:22:07;97825.25;;;21.58
20730;BMP280;10526;50.850;12.928;2023-07-16T05:26:29;97817.16;;;23.93
20730;BMP280;10526;50.850;12.928;2023-07-16T05:31:01;97815.03;;;24.78
20730;BMP280;10526;50.850;12.928;2023-07-16T05:35:24;97826.53;;;25.58
20730;BMP280;10526;50.850;12.928;2023-07-16T05:39:46;97826.97;;;25.27
20730;BMP280;10526;50.850;12.928;2023-07-16T05:44:08;97837.59;;;25.36
20730;BMP280;10526;50.850;12.928;2023-07-16T05:48:31;97837.66;;;25.25
20730;BMP280;10526;50.850;12.928;2023-07-16T05:52:53;97852.25;;;25.27
20730;BMP280;10526;50.850;12.928;2023-07-16T05:57:15;97865.16;;;25.27
20730;BMP280;10526;50.850;12.928;2023-07-16T06:01:37;97875.88;;;25.60
20730;BMP280;10526;50.850;12.928;2023-07-16T06:05:59;97895.00;;;26.26
20730;BMP280;10526;50.850;12.928;2023-07-16T06:10:21;97894.97;;;28.98
20730;BMP280;10526;50.850;12.928;2023-07-16T06:14:43;97893.06;;;29.82
20730;BMP280;10526;50.850;12.928;2023-07-16T06:19:05;97885.34;;;29.73
20730;BMP280;10526;50.850;12.928;2023-07-16T06:23:27;97908.16;;;28.21
20730;BMP280;10526;50.850;12.928;2023-07-16T06:27:49;97897.59;;;27.48
20730;BMP280;10526;50.850;12.928;2023-07-16T06:32:11;97878.19;;;30.55
20730;BMP280;10526;50.850;12.928;2023-07-16T06:36:33;97885.63;;;33.72
20730;BMP280;10526;50.850;12.928;2023-07-16T06:40:55;97900.19;;;36.45
20730;BMP280;10526;50.850;12.928;2023-07-16T06:45:18;97906.25;;;37.44
20730;BMP280;10526;50.850;12.928;2023-07-16T06:49:40;97900.22;;;38.23
20730;BMP280;10526;50.850;12.928;2023-07-16T06:54:02;97928.38;;;38.17
20730;BMP280;10526;50.850;12.928;2023-07-16T06:58:33;97926.50;;;36.35
20730;BMP280;10526;50.850;12.928;2023-07-16T07:02:56;97937.16;;;33.28
20730;BMP280;10526;50.850;12.928;2023-07-16T07:07:18;97934.41;;;31.26
20730;BMP280;10526;50.850;12.928;2023-07-16T07:11:40;97938.56;;;30.40
20730;BMP280;10526;50.850;12.928;2023-07-16T07:16:02;97929.19;;;29.86
20730;BMP280;10526;50.850;12.928;2023-07-16T07:20:24;97921.97;;;29.96
20730;BMP280;10526;50.850;12.928;2023-07-16T07:24:46;97925.84;;;30.01
20730;BMP280;10526;50.850;12.928;2023-07-16T07:29:08;97929.56;;;29.49
20730;BMP280;10526;50.850;12.928;2023-07-16T07:33:30;97928.19;;;29.76
20730;BMP280;10526;50.850;12.928;2023-07-16T07:37:53;97941.94;;;31.33
20730;BMP280;10526;50.850;12.928;2023-07-16T07:42:15;97940.84;;;33.23
20730;BMP280;10526;50.850;12.928;2023-07-16T07:46:37;97941.03;;;36.73
20730;BMP280;10526;50.850;12.928;2023-07-16T07:50:59;97946.72;;;36.76
20730;BMP280;10526;50.850;12.928;2023-07-16T07:55:21;97939.91;;;36.48
20730;BMP280;10526;50.850;12.928;2023-07-16T07:59:43;97954.72;;;37.31
20730;BMP280;10526;50.850;12.928;2023-07-16T08:04:05;97949.75;;;34.47
20730;BMP280;10526;50.850;12.928;2023-07-16T08:08:27;97938.44;;;33.27
20730;BMP280;10526;50.850;12.928;2023-07-16T08:12:49;97949.31;;;31.61
20730;BMP280;10526;50.850;12.928;2023-07-16T08:17:11;97955.56;;;32.22
20730;BMP280;10526;50.850;12.928;2023-07-16T08:21:34;97956.84;;;35.94
20730;BMP280;10526;50.850;12.928;2023-07-16T08:25:56;97963.69;;;37.51
20730;BMP280;10526;50.850;12.928;2023-07-16T08:30:18;97978.78;;;39.24
20730;BMP280;10526;50.850;12.928;2023-07-16T08:34:39;97984.38;;;38.12
20730;BMP280;10526;50.850;12.928;2023-07-16T08:39:02;97977.22;;;38.98
20730;BMP280;10526;50.850;12.928;2023-07-16T08:43:24;97987.97;;;39.50
20730;BMP280;10526;50.850;12.928;2023-07-16T08:47:46;97971.72;;;38.20
20730;BMP280;10526;50.850;12.928;2023-07-16T08:52:09;97999.50;;;38.53
20730;BMP280;10526;50.850;12.928;2023-07-16T08:56:32;97985.94;;;38.80
20730;BMP280;10526;50.850;12.928;2023-07-16T09:00:54;97986.88;;;38.08
20730;BMP280;10526;50.850;12.928;2023-07-16T09:05:20;97977.75;;;35.22
20730;BMP280;10526;50.850;12.928;2023-07-16T09:10:00;97983.63;;;35.26
20730;BMP280;10526;50.850;12.928;2023-07-16T09:14:22;97993.50;;;34.41
20730;BMP280;10526;50.850;12.928;2023-07-16T09:18:45;97997.53;;;38.11
20730;BMP280;10526;50.850;12.928;2023-07-16T09:23:08;98006.22;;;37.23
20730;BMP280;10526;50.850;12.928;2023-07-16T09:27:31;97991.56;;;35.95
20730;BMP280;10526;50.850;12.928;2023-07-16T09:31:59;97990.28;;;33.93
20730;BMP280;10526;50.850;12.928;2023-07-16T09:36:25;97997.00;;;34.00
20730;BMP280;10526;50.850;12.928;2023-07-16T09:40:47;98012.25;;;32.86
20730;BMP280;10526;50.850;12.928;2023-07-16T09:45:19;97994.78;;;31.39
20730;BMP280;10526;50.850;12.928;2023-07-16T09:49:41;98006.28;;;32.04
20730;BMP280;10526;50.850;12.928;2023-07-16T09:54:04;98007.53;;;34.01
20730;BMP280;10526;50.850;12.928;2023-07-16T09:58:27;98018.44;;;36.89
20730;BMP280;10526;50.850;12.928;2023-07-16T10:02:51;98014.72;;;38.08
20730;BMP280;10526;50.850;12.928;2023-07-16T10:07:22;98017.69;;;33.99
20730;BMP280;10526;50.850;12.928;2023-07-16T10:11:45;98015.59;;;32.69
20730;BMP280;10526;50.850;12.928;2023-07-16T10:16:19;98020.25;;;32.44
20730;BMP280;10526;50.850;12.928;2023-07-16T10:20:41;98016.25;;;35.01
20730;BMP280;10526;50.850;12.928;2023-07-16T10:29:41;98008.50;;;34.38
20730;BMP280;10526;50.850;12.928;2023-07-16T10:34:04;98004.25;;;34.89
20730;BMP280;10526;50.850;12.928;2023-07-16T10:38:27;98015.34;;;35.79
20730;BMP280;10526;50.850;12.928;2023-07-16T10:42:49;98016.94;;;35.82
20730;BMP280;10526;50.850;12.928;2023-07-16T10:47:33;98003.09;;;34.23
20730;BMP280;10526;50.850;12.928;2023-07-16T10:51:58;98004.44;;;34.39
20730;BMP280;10526;50.850;12.928;2023-07-16T10:56:20;98007.16;;;35.44
20730;BMP280;10526;50.850;12.928;2023-07-16T11:00:42;98012.69;;;35.18
20730;BMP280;10526;50.850;12.928;2023-07-16T11:05:04;97999.75;;;33.25
20730;BMP280;10526;50.850;12.928;2023-07-16T11:09:26;98007.66;;;32.73
20730;BMP280;10526;50.850;12.928;2023-07-16T11:13:48;97992.31;;;31.87
20730;BMP280;10526;50.850;12.928;2023-07-16T11:18:10;97993.38;;;31.53
20730;BMP280;10526;50.850;12.928;2023-07-16T11:22:38;97991.88;;;30.65
20730;BMP280;10526;50.850;12.928;2023-07-16T11:27:00;97982.41;;;29.96
20730;BMP280;10526;50.850;12.928;2023-07-16T11:31:22;97975.94;;;29.73
20730;BMP280;10526;50.850;12.928;2023-07-16T11:35:48;97970.38;;;30.28
20730;BMP280;10526;50.850;12.928;2023-07-16T11:40:15;97967.41;;;29.63
20730;BMP280;10526;50.850;12.928;2023-07-16T11:44:37;97971.94;;;29.61
20730;BMP280;10526;50.850;12.928;2023-07-16T11:49:00;97970.31;;;29.44
20730;BMP280;10526;50.850;12.928;2023-07-16T11:53:22;97969.66;;;29.04
20730;BMP280;10526;50.850;12.928;2023-07-16T11:57:44;97955.63;;;28.82
20730;BMP280;10526;50.850;12.928;2023-07-16T12:02:07;97943.91;;;28.55
20730;BMP280;10526;50.850;12.928;2023-07-16T12:06:29;97949.75;;;28.78
20730;BMP280;10526;50.850;12.928;2023-07-16T12:10:51;97951.22;;;28.65
20730;BMP280;10526;50.850;12.928;2023-07-16T12:15:13;97961.00;;;29.00
20730;BMP280;10526;50.850;12.928;2023-07-16T12:19:35;97956.06;;;28.99
20730;BMP280;10526;50.850;12.928;2023-07-16T12:23:57;97955.94;;;29.04
20730;BMP280;10526;50.850;12.928;2023-07-16T12:28:19;97951.19;;;29.05
20730;BMP280;10526;50.850;12.928;2023-07-16T12:32:41;97962.06;;;28.97
20730;BMP280;10526;50.850;12.928;2023-07-16T12:37:03;97972.50;;;28.86
20730;BMP280;10526;50.850;12.928;2023-07-16T12:41:25;97963.38;;;28.38
20730;BMP280;10526;50.850;12.928;2023-07-16T12:45:47;97966.63;;;27.91
20730;BMP280;10526;50.850;12.928;2023-07-16T12:50:09;97942.03;;;28.05
20730;BMP280;10526;50.850;12.928;2023-07-16T12:54:31;97965.03;;;27.83
20730;BMP280;10526;50.850;12.928;2023-07-16T12:58:53;97967.44;;;28.05
20730;BMP280;10526;50.850;12.928;2023-07-16T13:03:15;97964.66;;;28.24
20730;BMP280;10526;50.850;12.928;2023-07-16T13:07:38;97974.75;;;28.29
20730;BMP280;10526;50.850;12.928;2023-07-16T13:12:01;97970.97;;;28.32
20730;BMP280;10526;50.850;12.928;2023-07-16T13:16:24;97980.25;;;28.42
20730;BMP280;10526;50.850;12.928;2023-07-16T13:20:46;97970.56;;;28.41
20730;BMP280;10526;50.850;12.928;2023-07-16T13:25:08;97970.19;;;28.50
20730;BMP280;10526;50.850;12.928;2023-07-16T13:29:30;97967.53;;;28.45
20730;BMP280;10526;50.850;12.928;2023-07-16T13:33:52;97982.84;;;28.66
20730;BMP280;10526;50.850;12.928;2023-07-16T13:38:14;97963.03;;;28.87
20730;BMP280;10526;50.850;12.928;2023-07-16T13:42:36;97979.16;;;28.77
20730;BMP280;10526;50.850;12.928;2023-07-16T13:46:58;97974.34;;;28.38
20730;BMP280;10526;50.850;12.928;2023-07-16T13:51:20;97979.09;;;28.37
20730;BMP280;10526;50.850;12.928;2023-07-16T13:55:42;97970.84;;;28.24
20730;BMP280;10526;50.850;12.928;2023-07-16T14:00:06;97982.88;;;28.34
20730;BMP280;10526;50.850;12.928;2023-07-16T14:04:32;97986.09;;;28.65
20730;BMP280;10526;50.850;12.928;2023-07-16T14:08:54;97973.91;;;28.34
20730;BMP280;10526;50.850;12.928;2023-07-16T14:13:16;97973.97;;;28.15
20730;BMP280;10526;50.850;12.928;2023-07-16T14:17:38;97986.06;;;28.07
20730;BMP280;10526;50.850;12.928;2023-07-16T14:22:00;97965.38;;;27.92
20730;BMP280;10526;50.850;12.928;2023-07-16T14:26:22;97972.75;;;27.97
20730;BMP280;10526;50.850;12.928;2023-07-16T14:30:44;97971.09;;;28.08
20730;BMP280;10526;50.850;12.928;2023-07-16T14:35:06;97976.91;;;28.36
20730;BMP280;10526;50.850;12.928;2023-07-16T14:39:46;97972.75;;;27.97
20730;BMP280;10526;50.850;12.928;2023-07-16T14:44:08;97976.66;;;27.70
20730;BMP280;10526;50.850;12.928;2023-07-16T14:48:30;97977.13;;;27.68
20730;BMP280;10526;50.850;12.928;2023-07-16T14:52:53;97969.75;;;27.63
20730;BMP280;10526;50.850;12.928;2023-07-16T14:57:15;97970.78;;;27.60
20730;BMP280;10526;50.850;12.928;2023-07-16T15:01:37;97969.59;;;27.56
20730;BMP280;10526;50.850;12.928;2023-07-16T15:05:59;97963.03;;;27.64
20730;BMP280;10526;50.850;12.928;2023-07-16T15:10:21;97950.75;;;27.71
20730;BMP280;10526;50.850;12.928;2023-07-16T15:14:44;97959.56;;;27.64
20730;BMP280;10526;50.850;12.928;2023-07-16T15:19:07;97966.34;;;27.39
20730;BMP280;10526;50.850;12.928;2023-07-16T15:23:30;97954.59;;;27.25
20730;BMP280;10526;50.850;12.928;2023-07-16T15:27:53;97945.69;;;27.19
20730;BMP280;10526;50.850;12.928;2023-07-16T15:32:15;97954.94;;;27.16
20730;BMP280;10526;50.850;12.928;2023-07-16T15:36:37;97946.91;;;26.99
20730;BMP280;10526;50.850;12.928;2023-07-16T15:41:00;97945.75;;;26.94
20730;BMP280;10526;50.850;12.928;2023-07-16T15:45:23;97950.94;;;26.98
20730;BMP280;10526;50.850;12.928;2023-07-16T15:49:45;97944.72;;;26.97
20730;BMP280;10526;50.850;12.928;2023-07-16T15:54:07;97952.25;;;26.91
20730;BMP280;10526;50.850;12.928;2023-07-16T15:58:29;97945.28;;;26.90
20730;BMP280;10526;50.850;12.928;2023-07-16T16:02:51;97944.06;;;26.86
20730;BMP280;10526;50.850;12.928;2023-07-16T16:07:15;97944.88;;;26.81
20730;BMP280;10526;50.850;12.928;2023-07-16T16:11:37;97938.16;;;26.82
20730;BMP280;10526;50.850;12.928;2023-07-16T16:15:59;97938.31;;;26.89
20730;BMP280;10526;50.850;12.928;2023-07-16T16:20:21;97945.34;;;26.85
20730;BMP280;10526;50.850;12.928;2023-07-16T16:24:43;97945.91;;;26.78
20730;BMP280;10526;50.850;12.928;2023-07-16T16:29:06;97941.53;;;26.69
20730;BMP280;10526;50.850;12.928;2023-07-16T16:33:28;97944.31;;;26.63
20730;BMP280;10526;50.850;12.928;2023-07-16T16:37:51;97945.31;;;26.60
20730;BMP280;10526;50.850;12.928;2023-07-16T16:42:14;97952.63;;;26.47
20730;BMP280;10526;50.850;12.928;2023-07-16T16:46:35;97950.44;;;26.45
20730;BMP280;10526;50.850;12.928;2023-07-16T16:50:57;97949.75;;;26.39
20730;BMP280;10526;50.850;12.928;2023-07-16T16:55:20;97949.06;;;26.33
20730;BMP280;10526;50.850;12.928;2023-07-16T16:59:42;97951.16;;;26.16
20730;BMP280;10526;50.850;12.928;2023-07-16T17:04:04;97951.94;;;26.11
20730;BMP280;10526;50.850;12.928;2023-07-16T17:08:26;97945.50;;;26.08
20730;BMP280;10526;50.850;12.928;2023-07-16T17:12:49;97957.22;;;26.03
20730;BMP280;10526;50.850;12.928;2023-07-16T17:17:11;97958.25;;;25.94
20730;BMP280;10526;50.850;12.928;2023-07-16T17:21:33;97962.03;;;25.86
20730;BMP280;10526;50.850;12.928;2023-07-16T17:25:55;97959.06;;;25.84
20730;BMP280;10526;50.850;12.928;2023-07-16T17:30:17;97956.09;;;25.82
20730;BMP280;10526;50.850;12.928;2023-07-16T17:34:39;97954.16;;;25.77
20730;BMP280;10526;50.850;12.928;2023-07-16T17:39:03;97955.69;;;25.72
20730;BMP280;10526;50.850;12.928;2023-07-16T17:43:25;97958.66;;;25.69
20730;BMP280;10526;50.850;12.928;2023-07-16T17:47:47;97962.63;;;25.68
20730;BMP280;10526;50.850;12.928;2023-07-16T17:52:09;97965.53;;;25.81
20730;BMP280;10526;50.850;12.928;2023-07-16T17:56:31;97963.06;;;25.83
20730;BMP280;10526;50.850;12.928;2023-07-16T18:00:56;97972.06;;;25.67
20730;BMP280;10526;50.850;12.928;2023-07-16T18:05:18;97963.00;;;25.42
20730;BMP280;10526;50.850;12.928;2023-07-16T18:09:40;97974.97;;;25.16
20730;BMP280;10526;50.850;12.928;2023-07-16T18:14:02;97975.00;;;25.00
20730;BMP280;10526;50.850;12.928;2023-07-16T18:18:25;97984.94;;;24.86
20730;BMP280;10526;50.850;12.928;2023-07-16T18:22:48;97985.69;;;24.75
20730;BMP280;10526;50.850;12.928;2023-07-16T18:27:10;97982.22;;;24.64
20730;BMP280;10526;50.850;12.928;2023-07-16T18:31:32;97995.09;;;24.52
20730;BMP280;10526;50.850;12.928;2023-07-16T18:35:55;97988.91;;;24.51
20730;BMP280;10526;50.850;12.928;2023-07-16T18:40:17;97987.66;;;24.47
20730;BMP280;10526;50.850;12.928;2023-07-16T18:44:39;97981.72;;;24.37
20730;BMP280;10526;50.850;12.928;2023-07-16T18:49:01;97982.41;;;24.21
20730;BMP280;10526;50.850;12.928;2023-07-16T18:53:23;97985.84;;;23.99
20730;BMP280;10526;50.850;12.928;2023-07-16T18:57:48;97981.34;;;23.74
20730;BMP280;10526;50.850;12.928;2023-07-16T19:02:11;97976.97;;;23.45
20730;BMP280;10526;50.850;12.928;2023-07-16T19:06:33;97983.03;;;23.17
20730;BMP280;10526;50.850;12.928;2023-07-16T19:10:55;97991.94;;;22.92
20730;BMP280;10526;50.850;12.928;2023-07-16T19:15:17;97996.69;;;22.66
20730;BMP280;10526;50.850;12.928;2023-07-16T19:19:39;97994.97;;;22.42
20730;BMP280;10526;50.850;12.928;2023-07-16T19:24:01;98000.28;;;22.25
20730;BMP280;10526;50.850;12.928;2023-07-16T19:28:24;98003.47;;;22.04
20730;BMP280;10526;50.850;12.928;2023-07-16T19:32:46;98001.59;;;21.89
20730;BMP280;10526;50.850;12.928;2023-07-16T19:37:08;98017.72;;;21.78
20730;BMP280;10526;50.850;12.928;2023-07-16T19:41:30;98014.56;;;21.65
20730;BMP280;10526;50.850;12.928;2023-07-16T19:46:03;98013.22;;;21.55
20730;BMP280;10526;50.850;12.928;2023-07-16T19:50:25;98017.25;;;21.45
20730;BMP280;10526;50.850;12.928;2023-07-16T19:54:48;98026.25;;;21.36
20730;BMP280;10526;50.850;12.928;2023-07-16T19:59:10;98035.19;;;21.27
20730;BMP280;10526;50.850;12.928;2023-07-16T20:03:32;98019.91;;;21.24
20730;BMP280;10526;50.850;12.928;2023-07-16T20:07:54;98024.78;;;21.20
20730;BMP280;10526;50.850;12.928;2023-07-16T20:12:19;98030.47;;;21.08
20730;BMP280;10526;50.850;12.928;2023-07-16T20:16:41;98032.72;;;20.94
20730;BMP280;10526;50.850;12.928;2023-07-16T20:21:03;98038.78;;;20.89
20730;BMP280;10526;50.850;12.928;2023-07-16T20:25:26;98034.31;;;20.86
20730;BMP280;10526;50.850;12.928;2023-07-16T20:29:48;98044.66;;;20.88
20730;BMP280;10526;50.850;12.928;2023-07-16T20:34:10;98035.06;;;20.87
20730;BMP280;10526;50.850;12.928;2023-07-16T20:38:32;98038.22;;;20.85
20730;BMP280;10526;50.850;12.928;2023-07-16T20:42:54;98031.50;;;20.81
20730;BMP280;10526;50.850;12.928;2023-07-16T20:47:16;98030.84;;;20.71
20730;BMP280;10526;50.850;12.928;2023-07-16T20:51:38;98031.66;;;20.62
20730;BMP280;10526;50.850;12.928;2023-07-16T20:56:00;98026.16;;;20.57
20730;BMP280;10526;50.850;12.928;2023-07-16T21:00:23;98029.78;;;20.39
20730;BMP280;10526;50.850;12.928;2023-07-16T21:04:48;98027.59;;;20.04
20730;BMP280;10526;50.850;12.928;2023-07-16T21:09:10;98026.72;;;19.74
20730;BMP280;10526;50.850;12.928;2023-07-16T21:13:32;98023.22;;;19.50
20730;BMP280;10526;50.850;12.928;2023-07-16T21:17:54;98026.56;;;19.36
20730;BMP280;10526;50.850;12.928;2023-07-16T21:22:16;98028.09;;;19.28
20730;BMP280;10526;50.850;12.928;2023-07-16T21:26:38;98038.78;;;19.13
20730;BMP280;10526;50.850;12.928;2023-07-16T21:31:01;98040.03;;;19.03
20730;BMP280;10526;50.850;12.928;2023-07-16T21:35:23;98047.41;;;19.02
20730;BMP280;10526;50.850;12.928;2023-07-16T21:39:48;98048.16;;;19.03
20730;BMP280;10526;50.850;12.928;2023-07-16T21:44:10;98055.75;;;19.04
20730;BMP280;10526;50.850;12.928;2023-07-16T21:48:32;98056.81;;;18.98
20730;BMP280;10526;50.850;12.928;2023-07-16T21:52:54;98052.81;;;18.84
20730;BMP280;10526;50.850;12.928;2023-07-16T21:57:17;98067.63;;;18.70
20730;BMP280;10526;50.850;12.928;2023-07-16T22:01:38;98068.84;;;18.60
20730;BMP280;10526;50.850;12.928;2023-07-16T22:06:01;98073.03;;;18.61
20730;BMP280;10526;50.850;12.928;2023-07-16T22:10:23;98086.97;;;18.69
20730;BMP280;10526;50.850;12.928;2023-07-16T22:14:45;98082.94;;;18.73
20730;BMP280;10526;50.850;12.928;2023-07-16T22:19:08;98090.88;;;18.68
20730;BMP280;10526;50.850;12.928;2023-07-16T22:23:50;98106.75;;;18.57
20730;BMP280;10526;50.850;12.928;2023-07-16T22:28:12;98099.50;;;18.44
20730;BMP280;10526;50.850;12.928;2023-07-16T22:32:34;98102.94;;;18.36
20730;BMP280;10526;50.850;12.928;2023-07-16T22:36:56;98097.56;;;18.36
20730;BMP280;10526;50.850;12.928;2023-07-16T22:41:18;98095.50;;;18.49
20730;BMP280;10526;50.850;12.928;2023-07-16T22:45:40;98103.00;;;18.54
20730;BMP280;10526;50.850;12.928;2023-07-16T22:50:04;98104.50;;;18.46
20730;BMP280;10526;50.850;12.928;2023-07-16T22:54:27;98113.00;;;18.35
20730;BMP280;10526;50.850;12.928;2023-07-16T22:58:49;98113.88;;;18.32
20730;BMP280;10526;50.850;12.928;2023-07-16T23:03:11;98117.53;;;18.47
20730;BMP280;10526;50.850;12.928;2023-07-16T23:07:34;98120.94;;;18.48
20730;BMP280;10526;50.850;12.928;2023-07-16T23:11:56;98120.34;;;18.44
20730;BMP280;10526;50.850;12.928;2023-07-16T23:16:18;98116.47;;;18.45
20730;BMP280;10526;50.850;12.928;2023-07-16T23:20:41;98113.94;;;18.50
20730;BMP280;10526;50.850;12.928;2023-07-16T23:25:04;98114.53;;;18.55
20730;BMP280;10526;50.850;12.928;2023-07-16T23:29:26;98100.28;;;18.54
20730;BMP280;10526;50.850;12.928;2023-07-16T23:33:49;98104.34;;;18.49
20730;BMP280;10526;50.850;12.928;2023-07-16T23:38:11;98102.66;;;18.43
20730;BMP280;10526;50.850;12.928;2023-07-16T23:42:33;98108.19;;;18.39
20730;BMP280;10526;50.850;12.928;2023-07-16T23:46:55;98101.75;;;18.37
20730;BMP280;10526;50.850;12.928;2023-07-16T23:51:20;98106.84;;;18.44
20730;BMP280;10526;50.850;12.928;2023-07-16T23:55:42;98106.00;;;18.56
